createdAt,value
2022-08-22T00:00:11.605Z,52.52
2022-08-22T00:03:15.676Z,51.58
2022-08-22T00:06:16.643Z,52.59
2022-08-22T00:08:55.683Z,52.60
2022-08-22T00:11:49.185Z,52.86
2022-08-22T00:14:41.412Z,53.22
2022-08-22T00:17:39.701Z,52.91
2022-08-22T00:20:19.075Z,53.35
2022-08-22T00:23:08.132Z,52.63
2022-08-22T00:25:37.827Z,52.46
2022-08-22T00:28:28.519Z,52.62
2022-08-22T00:31:24.505Z,52.58
2022-08-22T00:34:16.282Z,52.69
2022-08-22T00:37:04.429Z,52.80
2022-08-22T00:39:56.529Z,52.78
2022-08-22T00:43:08.539Z,52.47
2022-08-22T00:46:07.754Z,52.85
2022-08-22T00:48:40.325Z,52.80
2022-08-22T00:51:30.533Z,53.00
2022-08-22T00:54:11.436Z,53.29
2022-08-22T00:56:50.125Z,53.19
2022-08-22T00:59:34.436Z,53.26
2022-08-22T01:02:07.331Z,54.20
2022-08-22T01:04:49.907Z,54.45
2022-08-22T01:07:51.052Z,54.90
2022-08-22T01:10:32.884Z,55.07
2022-08-22T01:13:10.696Z,55.30
2022-08-22T01:15:38.121Z,54.43
2022-08-22T01:18:23.462Z,55.00
2022-08-22T01:21:27.661Z,55.61
2022-08-22T01:24:13.134Z,55.40
2022-08-22T01:27:05.560Z,55.42
2022-08-22T01:29:44.464Z,55.49
2022-08-22T01:32:43.304Z,55.87
2022-08-22T01:35:26.418Z,55.95
2022-08-22T01:38:44.729Z,56.30
2022-08-22T01:41:14.709Z,56.17
2022-08-22T01:44:00.333Z,56.21
2022-08-22T01:46:54.398Z,56.51
2022-08-22T01:49:24.079Z,56.07
2022-08-22T01:51:53.660Z,56.28
2022-08-22T01:54:43.595Z,57.30
2022-08-22T01:57:12.177Z,57.39
2022-08-22T01:59:43.344Z,57.51
2022-08-22T02:02:52.187Z,57.52
2022-08-22T02:05:22.493Z,56.84
2022-08-22T02:07:49.099Z,56.80
2022-08-22T02:10:42.626Z,56.84
2022-08-22T02:13:13.033Z,56.54
2022-08-22T02:15:39.851Z,56.77
2022-08-22T02:18:06.431Z,56.71
2022-08-22T02:20:44.090Z,56.63
2022-08-22T02:23:26.705Z,56.72
2022-08-22T02:25:58.920Z,56.91
2022-08-22T02:28:56.711Z,57.19
2022-08-22T02:31:45.680Z,57.46
2022-08-22T02:34:53.891Z,58.10
2022-08-22T02:37:49.965Z,58.06
2022-08-22T02:40:38.368Z,57.81
2022-08-22T02:43:18.106Z,58.74
2022-08-22T02:46:17.171Z,58.90
2022-08-22T02:49:12.090Z,59.37
2022-08-22T02:52:26.584Z,59.44
2022-08-22T02:55:15.060Z,59.82
2022-08-22T02:58:15.968Z,59.86
2022-08-22T03:00:51.289Z,59.82
2022-08-22T03:03:29.087Z,59.65
2022-08-22T03:06:01.675Z,59.87
2022-08-22T03:08:31.278Z,59.63
2022-08-22T03:10:57.836Z,59.38
2022-08-22T03:13:53.764Z,59.53
2022-08-22T03:16:47.389Z,59.69
2022-08-22T03:19:22.413Z,59.45
2022-08-22T03:22:03.757Z,59.23
2022-08-22T03:24:52.353Z,58.96
2022-08-22T03:27:32.712Z,59.34
2022-08-22T03:30:07.785Z,59.98
2022-08-22T03:33:19.238Z,60.20
2022-08-22T03:35:46.029Z,59.97
2022-08-22T03:38:34.022Z,60.36
2022-08-22T03:41:06.645Z,60.37
2022-08-22T03:44:04.420Z,60.63
2022-08-22T03:46:59.265Z,60.35
2022-08-22T03:49:50.305Z,60.69
2022-08-22T03:52:23.105Z,60.54
2022-08-22T03:55:09.167Z,60.48
2022-08-22T03:57:41.866Z,60.71
2022-08-22T04:00:39.629Z,60.96
2022-08-22T04:03:26.795Z,60.68
2022-08-22T04:06:31.242Z,60.82
2022-08-22T04:09:19.485Z,60.85
2022-08-22T04:12:08.720Z,60.85
2022-08-22T04:15:29.031Z,60.92
2022-08-22T04:18:14.329Z,60.93
2022-08-22T04:21:38.765Z,60.97
2022-08-22T04:24:30.122Z,60.88
2022-08-22T04:27:20.536Z,60.78
2022-08-22T04:30:05.883Z,60.88
2022-08-22T04:32:45.547Z,60.78
2022-08-22T04:35:17.856Z,60.45
2022-08-22T04:38:21.885Z,60.95
2022-08-22T04:40:55.318Z,60.33
2022-08-22T04:43:40.932Z,60.79
2022-08-22T04:46:14.849Z,60.66
2022-08-22T04:48:48.550Z,61.02
2022-08-22T04:51:33.626Z,61.13
2022-08-22T04:54:58.888Z,61.40
2022-08-22T04:57:31.237Z,61.21
2022-08-22T05:00:01.888Z,61.04
2022-08-22T05:02:28.886Z,61.39
2022-08-22T05:05:13.547Z,61.40
2022-08-22T05:07:48.294Z,60.90
2022-08-22T05:10:28.123Z,61.07
2022-08-22T05:13:07.705Z,60.87
2022-08-22T05:15:38.852Z,60.83
2022-08-22T05:18:09.993Z,60.94
2022-08-22T05:20:40.462Z,60.55
2022-08-22T05:23:29.548Z,60.88
2022-08-22T05:26:02.230Z,60.23
2022-08-22T05:28:37.475Z,60.17
2022-08-22T05:31:09.052Z,60.68
2022-08-22T05:33:49.717Z,59.04
2022-08-22T05:36:22.938Z,59.51
2022-08-22T05:39:13.913Z,59.59
2022-08-22T05:41:41.747Z,59.25
2022-08-22T05:44:18.716Z,58.77
2022-08-22T05:46:51.426Z,58.34
2022-08-22T05:49:27.988Z,58.64
2022-08-22T05:52:27.098Z,58.60
2022-08-22T05:55:04.334Z,58.05
2022-08-22T05:57:37.271Z,58.10
2022-08-22T06:00:11.097Z,57.77
2022-08-22T06:02:52.470Z,56.92
2022-08-22T06:05:26.116Z,57.29
2022-08-22T06:07:59.282Z,56.66
2022-08-22T06:10:31.863Z,56.42
2022-08-22T06:13:02.283Z,56.61
2022-08-22T06:15:29.094Z,56.04
2022-08-22T06:18:07.333Z,55.97
2022-08-22T06:20:45.871Z,56.07
2022-08-22T06:23:18.568Z,56.18
2022-08-22T06:25:48.469Z,55.74
2022-08-22T06:28:22.860Z,56.08
2022-08-22T06:30:51.953Z,55.39
2022-08-22T06:33:23.967Z,55.15
2022-08-22T06:36:16.372Z,55.61
2022-08-22T06:39:18.626Z,55.82
2022-08-22T06:41:52.573Z,55.15
2022-08-22T06:44:27.733Z,54.84
2022-08-22T06:46:58.631Z,54.80
2022-08-22T06:49:26.946Z,57.21
2022-08-22T06:52:00.635Z,56.51
2022-08-22T06:54:34.457Z,54.44
2022-08-22T06:57:03.292Z,55.67
2022-08-22T06:59:35.384Z,55.05
2022-08-22T07:02:23.183Z,54.33
2022-08-22T07:04:51.608Z,54.83
2022-08-22T07:07:20.402Z,54.63
2022-08-22T07:09:51.282Z,54.07
2022-08-22T07:12:21.033Z,53.82
2022-08-22T07:14:52.327Z,54.58
2022-08-22T07:17:26.645Z,54.43
2022-08-22T07:20:15.660Z,54.66
2022-08-22T07:22:55.421Z,54.15
2022-08-22T07:25:24.380Z,54.26
2022-08-22T07:27:53.979Z,54.44
2022-08-22T07:30:27.378Z,54.75
2022-08-22T07:32:57.925Z,54.24
2022-08-22T07:35:53.234Z,54.33
2022-08-22T07:38:43.924Z,54.14
2022-08-22T07:42:03.087Z,54.15
2022-08-22T07:44:38.492Z,54.21
2022-08-22T07:47:11.660Z,54.13
2022-08-22T07:50:02.871Z,53.60
2022-08-22T07:52:44.687Z,53.95
2022-08-22T07:55:48.464Z,54.45
2022-08-22T07:58:17.830Z,53.04
2022-08-22T08:00:46.893Z,53.03
2022-08-22T08:03:13.999Z,52.81
2022-08-22T08:05:43.677Z,52.38
2022-08-22T08:08:41.028Z,52.06
2022-08-22T08:11:12.041Z,51.70
2022-08-22T08:13:43.870Z,51.80
2022-08-22T08:16:18.422Z,51.89
2022-08-22T08:18:48.534Z,51.51
2022-08-22T08:21:38.767Z,51.47
2022-08-22T08:24:08.544Z,51.94
2022-08-22T08:27:03.644Z,51.64
2022-08-22T08:29:32.161Z,51.09
2022-08-22T08:32:00.969Z,50.42
2022-08-22T08:34:30.208Z,50.19
2022-08-22T08:37:02.477Z,49.89
2022-08-22T08:39:42.404Z,50.11
2022-08-22T08:42:33.967Z,49.59
2022-08-22T08:45:24.659Z,49.00
2022-08-22T08:48:15.816Z,49.50
2022-08-22T08:51:16.304Z,49.12
2022-08-22T08:54:24.880Z,48.53
2022-08-22T08:57:35.390Z,48.36
2022-08-22T09:00:11.134Z,48.23
2022-08-22T09:03:30.559Z,47.41
2022-08-22T09:06:16.820Z,46.69
2022-08-22T09:09:11.018Z,46.84
2022-08-22T09:12:11.459Z,46.41
2022-08-22T09:14:56.811Z,45.29
2022-08-22T09:17:53.980Z,45.15
2022-08-22T09:20:46.495Z,44.74
2022-08-22T09:23:31.936Z,45.02
2022-08-22T09:26:25.196Z,45.72
2022-08-22T09:28:54.376Z,47.44
2022-08-22T09:31:48.217Z,51.68
2022-08-22T09:34:24.134Z,48.87
2022-08-22T09:37:06.502Z,50.18
2022-08-22T09:39:46.634Z,50.93
2022-08-22T09:42:46.311Z,45.81
2022-08-22T09:45:38.252Z,45.15
2022-08-22T09:48:13.291Z,49.26
2022-08-22T09:50:52.754Z,49.55
2022-08-22T09:53:54.384Z,49.77
2022-08-22T09:56:49.486Z,50.46
2022-08-22T09:59:26.884Z,46.89
2022-08-22T10:01:59.942Z,44.59
2022-08-22T10:04:59.435Z,46.13
2022-08-22T10:08:05.981Z,45.59
2022-08-22T10:10:43.400Z,46.08
2022-08-22T10:13:21.055Z,44.77
2022-08-22T10:16:16.132Z,43.12
2022-08-22T10:19:06.388Z,44.92
2022-08-22T10:21:44.589Z,44.96
2022-08-22T10:24:25.467Z,45.50
2022-08-22T10:26:58.127Z,45.01
2022-08-22T10:30:02.619Z,45.24
2022-08-22T10:32:38.452Z,45.97
2022-08-22T10:35:17.510Z,44.80
2022-08-22T10:38:05.896Z,45.26
2022-08-22T10:40:39.417Z,45.10
2022-08-22T10:43:28.996Z,42.45
2022-08-22T10:46:13.784Z,44.10
2022-08-22T10:48:58.944Z,46.10
2022-08-22T10:51:31.374Z,44.90
2022-08-22T10:54:26.076Z,44.73
2022-08-22T10:57:20.799Z,43.64
2022-08-22T11:00:10.673Z,39.90
2022-08-22T11:02:53.796Z,41.91
2022-08-22T11:05:24.459Z,42.11
2022-08-22T11:08:19.370Z,43.00
2022-08-22T11:11:10.260Z,42.48
2022-08-22T11:14:16.413Z,41.31
2022-08-22T11:17:30.869Z,43.23
2022-08-22T11:20:08.970Z,39.08
2022-08-22T11:23:00.308Z,41.24
2022-08-22T11:25:52.365Z,41.47
2022-08-22T11:28:38.743Z,38.87
2022-08-22T11:31:19.820Z,36.32
2022-08-22T11:33:59.681Z,34.50
2022-08-22T11:36:47.259Z,38.76
2022-08-22T11:39:41.833Z,39.06
2022-08-22T11:42:24.580Z,37.73
2022-08-22T11:44:59.213Z,37.54
2022-08-22T11:47:32.155Z,38.95
2022-08-22T11:50:13.987Z,38.79
2022-08-22T11:52:51.614Z,39.08
2022-08-22T11:55:34.536Z,39.56
2022-08-22T11:58:41.242Z,39.18
2022-08-22T12:01:19.761Z,40.38
2022-08-22T12:04:01.246Z,38.95
2022-08-22T12:06:52.066Z,35.33
2022-08-22T12:09:26.437Z,37.66
2022-08-22T12:12:33.331Z,38.34
2022-08-22T12:15:24.399Z,39.84
2022-08-22T12:18:09.453Z,35.98
2022-08-22T12:20:54.326Z,36.27
2022-08-22T12:23:48.714Z,34.96
2022-08-22T12:26:40.642Z,34.36
2022-08-22T12:29:20.212Z,33.03
2022-08-22T12:32:06.274Z,37.42
2022-08-22T12:34:36.807Z,37.35
2022-08-22T12:37:15.665Z,37.73
2022-08-22T12:40:10.508Z,32.15
2022-08-22T12:43:27.892Z,34.05
2022-08-22T12:46:38.754Z,31.64
2022-08-22T12:50:01.997Z,33.67
2022-08-22T12:52:42.009Z,35.21
2022-08-22T12:55:16.713Z,36.37
2022-08-22T12:57:43.628Z,36.69
2022-08-22T13:00:26.803Z,36.87
2022-08-22T13:02:55.065Z,33.33
2022-08-22T13:05:27.225Z,34.07
2022-08-22T13:08:05.176Z,35.86
2022-08-22T13:10:47.437Z,37.21
2022-08-22T13:13:29.491Z,37.20
2022-08-22T13:16:06.451Z,36.36
2022-08-22T13:18:39.289Z,38.09
2022-08-22T13:21:15.297Z,39.51
2022-08-22T13:23:45.956Z,37.87
2022-08-22T13:26:32.042Z,38.12
2022-08-22T13:32:00.548Z,34.94
2022-08-22T13:34:43.503Z,33.24
2022-08-22T13:37:24.548Z,34.36
2022-08-22T13:40:00.919Z,35.14
2022-08-22T13:42:32.803Z,38.43
2022-08-22T13:45:05.445Z,34.28
2022-08-22T13:47:35.794Z,38.44
2022-08-22T13:50:12.621Z,38.50
2022-08-22T13:52:52.259Z,36.54
2022-08-22T13:55:49.217Z,36.61
2022-08-22T13:58:42.145Z,38.27
2022-08-22T14:01:20.285Z,36.76
2022-08-22T14:03:58.078Z,38.87
2022-08-22T14:07:11.240Z,34.50
2022-08-22T14:09:56.548Z,37.83
2022-08-22T14:12:49.887Z,38.72
2022-08-22T14:15:23.400Z,38.35
2022-08-22T14:17:55.985Z,39.20
2022-08-22T14:20:32.255Z,37.37
2022-08-22T14:23:16.376Z,39.99
2022-08-22T14:25:44.023Z,40.72
2022-08-22T14:28:27.421Z,41.42
2022-08-22T14:31:08.468Z,42.19
2022-08-22T14:33:44.523Z,41.66
2022-08-22T14:36:20.666Z,38.78
2022-08-22T14:39:10.124Z,42.14
2022-08-22T14:41:56.348Z,40.95
2022-08-22T14:44:38.808Z,40.48
2022-08-22T14:47:54.463Z,40.65
2022-08-22T14:50:09.636Z,40.61
2022-08-22T14:52:46.434Z,36.45
2022-08-22T14:55:23.855Z,37.69
2022-08-22T14:58:15.247Z,39.87
2022-08-22T15:00:45.360Z,39.80
2022-08-22T15:03:14.604Z,39.37
2022-08-22T15:05:48.673Z,34.42
2022-08-22T15:08:27.954Z,33.38
2022-08-22T15:11:20.160Z,35.70
2022-08-22T15:14:08.391Z,37.35
2022-08-22T15:16:51.811Z,36.53
2022-08-22T15:19:34.655Z,34.70
2022-08-22T15:22:25.694Z,36.20
2022-08-22T15:25:04.433Z,36.94
2022-08-22T15:27:34.898Z,39.30
2022-08-22T15:30:20.537Z,37.95
2022-08-22T15:32:49.042Z,37.45
2022-08-22T15:35:31.282Z,34.51
2022-08-22T15:38:04.583Z,38.37
2022-08-22T15:40:45.894Z,38.14
2022-08-22T15:43:21.161Z,38.87
2022-08-22T15:45:50.827Z,38.65
2022-08-22T15:48:29.724Z,39.55
2022-08-22T15:50:58.546Z,39.73
2022-08-22T15:53:31.324Z,39.33
2022-08-22T15:56:05.556Z,40.31
2022-08-22T15:58:37.264Z,39.53
2022-08-22T16:01:20.037Z,40.22
2022-08-22T16:04:04.821Z,40.02
2022-08-22T16:06:51.421Z,39.44
2022-08-22T16:09:50.687Z,36.60
2022-08-22T16:12:33.770Z,39.81
2022-08-22T16:15:03.083Z,39.68
2022-08-22T16:17:29.734Z,39.01
2022-08-22T16:20:19.421Z,40.01
2022-08-22T16:22:56.420Z,39.76
2022-08-22T16:25:44.808Z,36.20
2022-08-22T16:28:56.461Z,37.96
2022-08-22T16:31:27.343Z,40.45
2022-08-22T16:34:16.223Z,39.85
2022-08-22T16:37:03.070Z,39.70
2022-08-22T16:39:36.259Z,40.22
2022-08-22T16:42:32.959Z,40.55
2022-08-22T16:45:02.786Z,41.03
2022-08-22T16:47:40.773Z,40.70
2022-08-22T16:50:19.543Z,40.94
2022-08-22T16:52:58.429Z,40.05
2022-08-22T16:55:31.404Z,39.69
2022-08-22T16:58:06.447Z,39.60
2022-08-22T17:03:08.762Z,38.83
2022-08-22T17:06:04.346Z,37.51
2022-08-22T17:08:46.628Z,40.72
2022-08-22T17:11:13.135Z,39.89
2022-08-22T17:14:04.031Z,39.55
2022-08-22T17:17:02.959Z,39.33
2022-08-22T17:19:40.491Z,40.29
2022-08-22T17:22:45.584Z,39.51
2022-08-22T17:25:15.017Z,39.17
2022-08-22T17:27:44.992Z,40.57
2022-08-22T17:30:22.233Z,40.69
2022-08-22T17:33:08.501Z,39.99
2022-08-22T17:36:03.058Z,40.75
2022-08-22T17:38:57.817Z,40.87
2022-08-22T17:42:01.544Z,41.14
2022-08-22T17:44:32.880Z,41.38
2022-08-22T17:46:59.498Z,41.84
2022-08-22T17:49:32.053Z,41.74
2022-08-22T17:52:11.368Z,42.43
2022-08-22T17:54:46.971Z,43.18
2022-08-22T17:57:22.260Z,42.28
2022-08-22T17:59:51.869Z,42.83
2022-08-22T18:02:30.780Z,43.46
2022-08-22T18:05:28.562Z,43.29
2022-08-22T18:08:37.208Z,43.19
2022-08-22T18:11:08.982Z,43.29
2022-08-22T18:13:35.569Z,43.27
2022-08-22T18:16:11.944Z,43.56
2022-08-22T18:18:45.967Z,43.60
2022-08-22T18:21:29.919Z,43.45
2022-08-22T18:24:01.025Z,43.89
2022-08-22T18:26:44.554Z,43.92
2022-08-22T18:29:23.363Z,43.70
2022-08-22T18:32:02.019Z,42.46
2022-08-22T18:34:43.835Z,44.18
2022-08-22T18:37:33.024Z,43.96
2022-08-22T18:40:13.635Z,43.07
2022-08-22T18:42:45.561Z,43.61
2022-08-22T18:45:43.986Z,42.90
2022-08-22T18:48:20.597Z,42.10
2022-08-22T18:50:48.055Z,43.10
2022-08-22T18:53:37.941Z,41.86
2022-08-22T18:56:30.447Z,44.46
2022-08-22T18:59:51.542Z,42.53
2022-08-22T19:02:55.302Z,43.28
2022-08-22T19:05:41.452Z,43.51
2022-08-22T19:08:39.376Z,44.60
2022-08-22T19:11:35.077Z,43.31
2022-08-22T19:14:24.963Z,42.09
2022-08-22T19:17:16.547Z,43.02
2022-08-22T19:20:08.161Z,43.48
2022-08-22T19:22:36.824Z,43.47
2022-08-22T19:25:18.719Z,43.28
2022-08-22T19:28:08.806Z,44.16
2022-08-22T19:31:23.291Z,43.58
2022-08-22T19:34:12.957Z,44.14
2022-08-22T19:36:40.393Z,45.03
2022-08-22T19:39:10.784Z,44.28
2022-08-22T19:41:44.474Z,44.35
2022-08-22T19:44:32.524Z,44.83
2022-08-22T19:47:05.948Z,45.08
2022-08-22T19:49:37.346Z,44.02
2022-08-22T19:52:16.438Z,44.25
2022-08-22T19:54:48.433Z,44.98
2022-08-22T19:57:24.935Z,45.25
2022-08-22T20:00:00.239Z,44.29
2022-08-22T20:02:37.636Z,43.00
2022-08-22T20:05:22.318Z,42.67
2022-08-22T20:08:01.168Z,42.88
2022-08-22T20:10:47.038Z,43.33
2022-08-22T20:13:19.825Z,43.15
2022-08-22T20:16:11.015Z,43.34
2022-08-22T20:19:07.267Z,43.43
2022-08-22T20:21:53.806Z,43.60
2022-08-22T20:24:29.529Z,44.04
2022-08-22T20:27:13.306Z,43.83
2022-08-22T20:29:47.167Z,43.96
2022-08-22T20:32:16.615Z,46.30
2022-08-22T20:34:45.324Z,45.63
2022-08-22T20:37:32.416Z,46.16
2022-08-22T20:40:22.981Z,43.86
2022-08-22T20:43:10.958Z,44.13
2022-08-22T20:45:48.205Z,44.42
2022-08-22T20:48:15.416Z,45.36
2022-08-22T20:50:42.089Z,46.91
2022-08-22T20:53:16.893Z,44.58
2022-08-22T20:55:56.333Z,44.81
2022-08-22T20:58:26.354Z,44.68
2022-08-22T21:00:57.093Z,44.72
2022-08-22T21:03:41.781Z,44.88
2022-08-22T21:06:19.099Z,45.49
2022-08-22T21:09:07.580Z,45.77
2022-08-22T21:11:40.232Z,47.49
2022-08-22T21:14:25.456Z,47.69
2022-08-22T21:16:53.172Z,46.45
2022-08-22T21:19:26.355Z,46.69
2022-08-22T21:21:53.982Z,45.72
2022-08-22T21:24:20.630Z,45.72
2022-08-22T21:26:54.393Z,46.56
2022-08-22T21:29:32.893Z,46.02
2022-08-22T21:32:15.338Z,46.91
2022-08-22T21:34:45.964Z,46.44
2022-08-22T21:37:18.089Z,46.25
2022-08-22T21:39:49.826Z,46.89
2022-08-22T21:42:39.962Z,47.10
2022-08-22T21:45:09.044Z,46.77
2022-08-22T21:47:39.202Z,47.58
2022-08-22T21:50:18.883Z,47.73
2022-08-22T21:52:54.672Z,46.69
2022-08-22T21:55:34.411Z,47.18
2022-08-22T21:58:12.109Z,47.39
2022-08-22T22:00:54.872Z,47.96
2022-08-22T22:03:28.653Z,47.51
2022-08-22T22:05:58.090Z,47.89
2022-08-22T22:08:29.278Z,47.25
2022-08-22T22:11:01.251Z,47.67
2022-08-22T22:13:28.603Z,47.93
2022-08-22T22:15:56.064Z,48.15
2022-08-22T22:18:26.439Z,48.42
2022-08-22T22:20:54.611Z,48.44
2022-08-22T22:23:22.537Z,48.49
2022-08-22T22:25:51.013Z,48.03
2022-08-22T22:28:38.158Z,47.88
2022-08-22T22:31:05.683Z,47.89
2022-08-22T22:33:35.611Z,47.71
2022-08-22T22:36:09.135Z,47.50
2022-08-22T22:38:37.078Z,47.92
2022-08-22T22:41:07.257Z,48.10
2022-08-22T22:43:33.925Z,48.44
2022-08-22T22:46:00.603Z,48.75
2022-08-22T22:48:27.222Z,48.64
2022-08-22T22:50:54.748Z,47.97
2022-08-22T22:53:33.799Z,48.13
2022-08-22T22:56:06.786Z,48.30
2022-08-22T22:58:35.966Z,48.64
2022-08-22T23:01:15.344Z,49.19
2022-08-22T23:03:43.117Z,48.97
2022-08-22T23:06:21.989Z,49.64
2022-08-22T23:08:49.040Z,49.74
2022-08-22T23:11:19.589Z,49.72
2022-08-22T23:13:48.256Z,49.72
2022-08-22T23:16:19.100Z,49.43
2022-08-22T23:18:46.663Z,49.35
2022-08-22T23:21:17.190Z,49.36
2022-08-22T23:23:44.966Z,49.26
2022-08-22T23:26:12.747Z,49.97
2022-08-22T23:28:40.098Z,49.13
2022-08-22T23:31:17.357Z,48.96
2022-08-22T23:33:45.371Z,50.08
2022-08-22T23:36:14.855Z,49.32
2022-08-22T23:38:41.758Z,48.69
2022-08-22T23:41:11.801Z,49.25
2022-08-22T23:43:47.120Z,48.13
2022-08-22T23:46:15.695Z,48.35
2022-08-22T23:48:42.623Z,48.43
2022-08-22T23:51:11.051Z,47.96
2022-08-22T23:53:38.236Z,48.30
2022-08-22T23:56:19.591Z,48.59
2022-08-22T23:58:47.578Z,48.63
